Time;durP1;ratioP1;P1;durP2;ratioP2;P2;SDS_P1;SDS_P2;PMS_P1;PMS_P2;Temp;Humidity;BMP_temperature;BMP_pressure;BME280_temperature;BME280_humidity;BME280_pressure;Samples;Min_cycle;Max_cycle;Signal;HPM_P1;HPM_P2
2021/05/25 00:01:51;;;;;;;4.53;2.78;;;;;;;13.58;58.42;100763.47;4981300;28;123939;-67
2021/05/25 00:04:18;;;;;;;4.47;2.38;;;;;;;13.54;58.38;100761.94;4984942;28;123516;-66
2021/05/25 00:06:45;;;;;;;4.65;2.42;;;;;;;13.51;58.58;100762.13;4975182;28;113427;-66
2021/05/25 00:09:14;;;;;;;5.15;2.70;;;;;;;13.49;58.65;100769.34;4982662;28;114239;-65
2021/05/25 00:11:41;;;;;;;4.60;2.40;;;;;;;13.46;58.57;100769.50;4960857;28;123521;-65
2021/05/25 00:14:09;;;;;;;5.95;2.67;;;;;;;13.42;58.78;100769.69;4978897;28;123161;-66
2021/05/25 00:16:37;;;;;;;3.25;2.35;;;;;;;13.40;58.62;100768.91;4983741;28;114439;-65
2021/05/25 00:19:04;;;;;;;6.10;2.30;;;;;;;13.39;58.71;100775.19;4978825;28;114014;-65
2021/05/25 00:21:31;;;;;;;6.65;2.67;;;;;;;13.39;58.62;100775.19;4976520;28;123994;-65
2021/05/25 00:23:58;;;;;;;5.82;2.15;;;;;;;13.39;58.70;100780.53;4992176;28;121769;-66
2021/05/25 00:26:26;;;;;;;3.67;2.15;;;;;;;13.36;58.71;100775.38;4974305;28;115278;-66
2021/05/25 00:28:54;;;;;;;4.28;1.88;;;;;;;13.34;58.48;100774.59;4989790;28;115405;-66
2021/05/25 00:31:21;;;;;;;5.22;2.03;;;;;;;13.31;58.59;100780.09;4978340;28;124691;-66
2021/05/25 00:33:48;;;;;;;4.00;1.92;;;;;;;13.28;58.40;100777.59;4983148;28;124439;-66
2021/05/25 00:36:15;;;;;;;3.75;2.00;;;;;;;13.26;58.62;100784.81;4986048;28;114517;-65
2021/05/25 00:38:42;;;;;;;3.92;2.10;;;;;;;13.24;58.52;100786.66;4983829;28;114359;-66
2021/05/25 00:41:09;;;;;;;6.43;2.38;;;;;;;13.21;58.48;100793.03;4978342;28;124234;-66
2021/05/25 00:43:36;;;;;;;4.05;2.10;;;;;;;13.19;58.44;100784.28;4983537;28;124354;-67
2021/05/25 00:46:03;;;;;;;3.55;2.00;;;;;;;13.18;58.62;100781.69;4988242;28;114533;-66
2021/05/25 00:48:31;;;;;;;3.40;2.05;;;;;;;13.17;58.53;100786.19;4983810;28;112978;-66
2021/05/25 00:50:58;;;;;;;4.20;2.08;;;;;;;13.17;58.45;100787.97;4979140;28;123635;-66
2021/05/25 00:53:27;;;;;;;3.88;2.05;;;;;;;13.14;58.29;100790.81;4984970;28;124677;-66
2021/05/25 00:55:54;;;;;;;4.60;2.40;;;;;;;13.10;58.38;100789.28;4977201;28;113585;-66
2021/05/25 00:58:22;;;;;;;4.68;2.20;;;;;;;13.10;57.98;100794.59;4984232;28;114310;-66
2021/05/25 01:00:50;;;;;;;3.80;2.20;;;;;;;13.08;58.14;100796.47;4989720;28;124237;-66
2021/05/25 01:03:20;;;;;;;3.90;2.50;;;;;;;13.04;58.21;100796.63;4986105;28;123760;-66
2021/05/25 01:05:47;;;;;;;4.20;2.20;;;;;;;12.99;57.99;100798.69;4985666;28;114379;-66
2021/05/25 01:08:15;;;;;;;3.78;2.30;;;;;;;12.94;58.18;100790.13;4983179;28;114146;-66
2021/05/25 01:10:51;;;;;;;3.53;2.17;;;;;;;12.89;58.02;100792.19;4971992;28;124110;-66
2021/05/25 01:13:21;;;;;;;4.68;2.33;;;;;;;12.82;58.00;100789.00;4979829;28;124338;-66
2021/05/25 01:15:49;;;;;;;4.57;2.03;;;;;;;12.77;57.96;100798.16;4982982;28;115384;-66
2021/05/25 01:18:17;;;;;;;3.20;2.03;;;;;;;12.69;57.97;100801.25;4977948;28;114643;-66
2021/05/25 01:20:47;;;;;;;3.03;1.92;;;;;;;12.65;58.12;100795.22;4973719;28;124231;-66
2021/05/25 01:23:15;;;;;;;3.83;2.20;;;;;;;12.61;58.20;100804.31;4982237;28;124936;-66
2021/05/25 01:25:48;;;;;;;3.40;1.90;;;;;;;12.56;58.17;100801.03;4973715;28;114552;-66
2021/05/25 01:28:19;;;;;;;5.28;1.60;;;;;;;12.51;58.15;100797.81;4979551;28;114145;-67
2021/05/25 01:30:50;;;;;;;5.00;1.90;;;;;;;12.47;58.23;100806.88;4969941;28;124424;-66
2021/05/25 01:33:18;;;;;;;3.08;1.73;;;;;;;12.43;58.09;100805.31;4972045;28;124062;-66
2021/05/25 01:35:45;;;;;;;2.80;1.80;;;;;;;12.38;58.07;100802.06;4975435;28;114593;-66
2021/05/25 01:38:14;;;;;;;4.28;1.90;;;;;;;12.33;58.23;100810.25;4976253;28;114339;-66
2021/05/25 01:40:43;;;;;;;3.33;1.90;;;;;;;12.29;58.33;100803.41;4973042;28;124861;-66
2021/05/25 01:43:10;;;;;;;3.38;2.00;;;;;;;12.27;58.37;100800.81;4958896;28;123446;-66
2021/05/25 01:45:37;;;;;;;3.72;1.90;;;;;;;12.24;58.29;100805.44;4970008;28;113167;-66
2021/05/25 01:48:07;;;;;;;3.10;2.35;;;;;;;12.21;58.40;100801.16;4969142;28;113924;-66
2021/05/25 01:50:35;;;;;;;4.60;2.08;;;;;;;12.16;58.14;100813.78;4960526;28;123451;-66
2021/05/25 01:53:14;;;;;;;3.85;2.00;;;;;;;12.13;58.39;100815.75;4971127;28;123983;-66
2021/05/25 01:55:48;;;;;;;3.78;1.90;;;;;;;12.08;58.35;100811.53;4973367;28;117630;-66
2021/05/25 01:58:21;;;;;;;4.68;2.00;;;;;;;12.05;58.26;100805.53;4976144;28;114076;-66
2021/05/25 02:00:53;;;;;;;2.63;1.88;;;;;;;12.02;58.48;100811.00;4970801;28;124589;-66
2021/05/25 02:03:20;;;;;;;3.50;1.80;;;;;;;11.99;58.28;100812.00;4970440;28;124061;-66
2021/05/25 02:05:48;;;;;;;5.07;2.05;;;;;;;11.97;58.25;100813.03;4971238;28;115757;-66
2021/05/25 02:08:18;;;;;;;5.35;2.13;;;;;;;11.93;58.44;100822.09;4982340;28;114931;-66
2021/05/25 02:10:47;;;;;;;5.65;2.25;;;;;;;11.88;58.70;100815.22;4971100;28;124201;-66
2021/05/25 02:13:20;;;;;;;5.75;2.20;;;;;;;11.85;58.53;100815.34;4977120;28;122896;-66
2021/05/25 02:15:50;;;;;;;5.72;2.30;;;;;;;11.82;58.58;100823.47;4956830;28;113238;-66
2021/05/25 02:18:23;;;;;;;2.78;1.70;;;;;;;11.77;58.79;100828.16;4973883;28;115111;-66
2021/05/25 02:20:53;;;;;;;4.20;1.90;;;;;;;11.77;58.78;100822.84;4971460;28;123919;-66
2021/05/25 02:23:20;;;;;;;6.70;2.25;;;;;;;11.76;58.78;100826.44;4978211;28;123589;-66
2021/05/25 02:25:48;;;;;;;3.83;1.95;;;;;;;11.75;58.84;100829.16;4981613;28;114752;-66
2021/05/25 02:28:16;;;;;;;5.55;2.40;;;;;;;11.73;58.84;100826.56;4965269;28;114424;-66
2021/05/25 02:30:45;;;;;;;4.00;2.00;;;;;;;11.72;58.61;100830.19;4971721;28;124106;-66
2021/05/25 02:33:18;;;;;;;4.35;2.03;;;;;;;11.70;58.96;100824.09;4958496;28;123091;-66
2021/05/25 02:35:47;;;;;;;4.38;2.22;;;;;;;11.69;59.02;100830.31;4973702;28;113372;-66
2021/05/25 02:38:15;;;;;;;5.22;2.38;;;;;;;11.67;59.04;100826.88;4974656;28;114338;-66
2021/05/25 02:40:44;;;;;;;3.40;2.00;;;;;;;11.68;59.28;100828.63;4977024;28;123427;-66
2021/05/25 02:43:13;;;;;;;4.45;2.30;;;;;;;11.69;59.00;100830.31;4970738;28;123955;-66
2021/05/25 02:45:40;;;;;;;4.25;2.40;;;;;;;11.69;59.10;100827.66;4975297;28;114598;-66
2021/05/25 02:48:07;;;;;;;9.18;2.20;;;;;;;11.70;59.11;100829.41;4971377;28;114282;-66
2021/05/25 02:50:35;;;;;;;5.35;2.38;;;;;;;11.70;59.05;100826.75;4970540;28;123955;-66
2021/05/25 02:53:03;;;;;;;4.18;2.30;;;;;;;11.71;59.36;100828.44;4968966;28;123930;-66
2021/05/25 02:55:33;;;;;;;4.38;2.20;;;;;;;11.71;59.35;100828.44;4970152;28;114185;-66
2021/05/25 02:58:02;;;;;;;3.80;2.17;;;;;;;11.73;59.25;100831.88;4976070;28;116389;-66
2021/05/25 03:00:37;;;;;;;5.78;2.35;;;;;;;11.73;59.26;100831.88;4974727;28;124096;-66
2021/05/25 03:03:05;;;;;;;4.95;2.25;;;;;;;11.74;59.31;100832.75;4967246;28;123049;-66
2021/05/25 03:05:32;;;;;;;4.28;2.50;;;;;;;11.76;59.18;100842.34;4970775;28;113535;-66
2021/05/25 03:08:01;;;;;;;5.47;2.40;;;;;;;11.77;59.37;100832.59;4970170;28;113193;-66
2021/05/25 03:10:30;;;;;;;5.90;2.38;;;;;;;11.79;59.21;100836.91;4971398;28;124811;-66
2021/05/25 03:12:58;;;;;;;5.30;2.10;;;;;;;11.82;59.63;100831.41;4970594;28;124660;-65
2021/05/25 03:15:34;;;;;;;3.70;2.25;;;;;;;11.83;59.69;100837.59;4974358;28;114473;-66
2021/05/25 03:18:03;;;;;;;7.72;2.30;;;;;;;11.86;59.76;100837.44;4970627;28;113447;-66
2021/05/25 03:20:33;;;;;;;5.47;2.30;;;;;;;11.89;59.65;100847.91;4975438;28;125101;-66
2021/05/25 03:23:01;;;;;;;2.55;1.80;;;;;;;11.92;59.66;100839.81;4964059;28;122783;-66
2021/05/25 03:25:29;;;;;;;3.30;2.03;;;;;;;11.95;59.76;100837.00;4971765;28;114583;-66
2021/05/25 03:27:56;;;;;;;6.10;2.00;;;;;;;11.98;59.61;100841.28;4972629;28;114229;-66
2021/05/25 03:30:26;;;;;;;4.28;1.95;;;;;;;12.00;59.61;100839.44;4976359;28;125209;-66
2021/05/25 03:32:55;;;;;;;5.57;2.05;;;;;;;12.00;59.40;100834.13;4970483;28;124067;-66
2021/05/25 03:35:24;;;;;;;5.82;2.17;;;;;;;12.04;59.66;100833.03;4953227;28;114168;-66
2021/05/25 03:37:52;;;;;;;3.30;2.20;;;;;;;12.05;59.67;100845.34;4972670;28;113912;-66
2021/05/25 03:40:19;;;;;;;4.70;2.28;;;;;;;12.05;59.48;100848.00;4970163;28;124118;-66
2021/05/25 03:42:52;;;;;;;4.78;1.77;;;;;;;12.07;59.33;100846.13;4975561;28;124027;-66
2021/05/25 03:45:20;;;;;;;4.10;2.10;;;;;;;12.08;59.70;100847.84;4969320;28;115052;-66
2021/05/25 03:47:48;;;;;;;3.63;2.08;;;;;;;12.12;59.75;100849.41;4989545;28;115089;-66
2021/05/25 03:50:17;;;;;;;4.40;2.05;;;;;;;12.13;59.51;100853.81;4966610;28;124050;-66
2021/05/25 03:52:50;;;;;;;6.68;2.22;;;;;;;12.14;59.63;100852.84;4971124;28;124411;-66
2021/05/25 04:00:34;;;;;;;4.80;2.35;;;;;;;12.16;59.51;100856.28;4971164;28;124113;-66
2021/05/25 04:03:02;;;;;;;4.65;2.28;;;;;;;12.18;59.58;100848.22;4971258;28;122656;-66
2021/05/25 04:05:30;;;;;;;5.20;2.30;;;;;;;12.19;59.68;100845.50;4969768;28;114154;-65
2021/05/25 04:07:57;;;;;;;4.93;2.63;;;;;;;12.21;59.72;100859.56;4945662;28;112747;-66
2021/05/25 04:10:25;;;;;;;5.55;2.20;;;;;;;12.22;59.67;100850.66;4967817;28;124290;-66
2021/05/25 04:12:52;;;;;;;4.80;2.47;;;;;;;12.24;59.83;100853.22;4969954;28;124554;-66
2021/05/25 04:15:19;;;;;;;3.05;2.35;;;;;;;12.27;59.83;100853.94;4975296;28;114290;-66
2021/05/25 04:17:46;;;;;;;4.78;2.40;;;;;;;12.31;59.78;100853.78;4969462;28;114009;-65
2021/05/25 04:20:14;;;;;;;3.78;2.25;;;;;;;12.33;59.77;100851.91;4990010;28;122712;-66
2021/05/25 04:22:41;;;;;;;4.55;2.20;;;;;;;12.35;59.96;100850.00;4973620;28;124594;-65
2021/05/25 04:25:08;;;;;;;6.50;2.58;;;;;;;12.39;59.81;100862.19;4971836;28;114545;-66
2021/05/25 04:27:36;;;;;;;3.75;2.13;;;;;;;12.39;59.56;100862.19;4979785;28;113414;-65
2021/05/25 04:30:05;;;;;;;4.25;2.22;;;;;;;12.39;59.77;100862.19;4976100;28;123683;-66
2021/05/25 04:32:33;;;;;;;3.55;2.35;;;;;;;12.42;59.64;100872.66;4968299;28;124509;-66
2021/05/25 04:35:01;;;;;;;4.88;2.45;;;;;;;12.45;59.76;100869.81;4975080;28;115265;-66
2021/05/25 04:37:28;;;;;;;6.85;2.35;;;;;;;12.47;59.49;100865.31;4971418;28;115211;-66
2021/05/25 04:39:55;;;;;;;9.20;2.97;;;;;;;12.47;59.26;100867.97;4969570;28;124712;-66
2021/05/25 04:42:22;;;;;;;4.50;2.70;;;;;;;12.46;59.35;100863.59;4969299;28;123703;-66
2021/05/25 04:44:49;;;;;;;6.88;2.53;;;;;;;12.46;59.27;100868.91;4981469;28;113844;-65
2021/05/25 04:47:16;;;;;;;6.38;2.72;;;;;;;12.45;59.30;100872.47;4969866;28;113886;-66
2021/05/25 04:49:43;;;;;;;5.43;2.60;;;;;;;12.45;59.28;100872.47;4951675;28;123512;-66
2021/05/25 04:52:11;;;;;;;5.82;2.80;;;;;;;12.46;59.49;100874.22;4971164;28;124828;-66
2021/05/25 04:54:38;;;;;;;4.57;2.75;;;;;;;12.48;59.54;100877.66;4969383;28;114568;-66
2021/05/25 04:57:05;;;;;;;4.88;3.35;;;;;;;12.48;59.51;100872.34;4970723;28;113547;-66
2021/05/25 04:59:32;;;;;;;4.68;2.60;;;;;;;12.50;59.68;100872.25;4969217;28;124379;-66
2021/05/25 05:01:59;;;;;;;5.18;2.83;;;;;;;12.51;59.81;100880.16;4968030;28;123060;-66
2021/05/25 05:04:26;;;;;;;4.90;2.92;;;;;;;12.55;59.92;100884.38;4968973;28;114320;-66
2021/05/25 05:06:53;;;;;;;4.13;2.80;;;;;;;12.58;59.91;100880.66;4969718;28;114209;-65
2021/05/25 05:09:22;;;;;;;6.03;3.00;;;;;;;12.60;59.71;100887.66;4974753;28;122618;-66
2021/05/25 05:11:49;;;;;;;4.15;2.90;;;;;;;12.62;59.60;100896.38;4971952;28;126822;-65
2021/05/25 05:14:16;;;;;;;7.65;2.90;;;;;;;12.65;59.86;100890.91;4972272;28;114425;-66
2021/05/25 05:16:43;;;;;;;5.65;2.85;;;;;;;12.70;59.96;100892.47;4969008;28;114681;-65
2021/05/25 05:19:10;;;;;;;5.38;3.30;;;;;;;12.75;59.93;100895.72;4975793;28;123168;-66
2021/05/25 05:21:37;;;;;;;5.28;2.92;;;;;;;12.78;59.96;100900.88;4962377;28;123863;-66
2021/05/25 05:24:05;;;;;;;4.30;2.63;;;;;;;12.81;59.75;100895.41;4972263;28;115704;-65
2021/05/25 05:26:32;;;;;;;7.03;3.03;;;;;;;12.84;60.01;100895.22;4980031;28;115342;-66
2021/05/25 05:28:59;;;;;;;5.03;3.13;;;;;;;12.86;59.69;100898.66;4982482;28;123193;-66
2021/05/25 05:31:26;;;;;;;4.65;2.97;;;;;;;12.88;59.65;100902.09;4974994;28;124389;-66
2021/05/25 05:33:53;;;;;;;4.65;2.83;;;;;;;12.90;59.53;100889.56;4979589;28;113482;-66
2021/05/25 05:36:20;;;;;;;4.32;2.85;;;;;;;12.93;59.76;100893.88;4974931;28;114688;-66
2021/05/25 05:38:47;;;;;;;6.25;3.17;;;;;;;12.96;59.88;100905.22;4964784;28;123909;-66
2021/05/25 05:41:14;;;;;;;4.53;3.10;;;;;;;12.98;59.58;100891.84;4973679;28;124927;-66
2021/05/25 05:43:42;;;;;;;6.25;3.70;;;;;;;13.01;59.82;100903.16;4977683;28;114599;-66
2021/05/25 05:46:09;;;;;;;4.80;3.33;;;;;;;13.05;59.89;100907.38;4975260;28;114130;-66
2021/05/25 05:48:36;;;;;;;4.75;3.67;;;;;;;13.12;59.89;100910.56;4970863;28;123838;-66
2021/05/25 05:51:03;;;;;;;5.72;3.70;;;;;;;13.16;59.67;100911.25;4979898;28;123838;-66
2021/05/25 05:53:33;;;;;;;6.85;4.00;;;;;;;13.17;59.91;100907.66;4984339;22;114548;-68
2021/05/25 05:56:01;;;;;;;5.03;3.58;;;;;;;13.20;59.63;100910.13;5007176;28;114238;-65
2021/05/25 05:58:28;;;;;;;5.60;3.90;;;;;;;13.23;59.80;100912.63;4991223;28;123902;-63
2021/05/25 06:00:55;;;;;;;5.32;4.03;;;;;;;13.25;59.76;100911.59;4992263;28;124248;-62
2021/05/25 06:03:22;;;;;;;8.18;3.85;;;;;;;13.29;59.70;100912.28;4993609;28;115002;-63
2021/05/25 06:05:49;;;;;;;5.78;3.63;;;;;;;13.32;59.89;100917.47;4989195;28;113883;-65
2021/05/25 06:08:17;;;;;;;6.97;4.00;;;;;;;13.37;59.52;100915.44;4991239;28;122944;-63
2021/05/25 06:10:51;;;;;;;6.10;4.22;;;;;;;13.38;59.54;100917.13;4988990;28;123734;-65
2021/05/25 06:13:23;;;;;;;8.98;4.30;;;;;;;13.39;59.66;100913.53;4988650;28;115243;-63
2021/05/25 06:15:55;;;;;;;5.00;4.25;;;;;;;13.43;59.55;100919.56;4992743;28;115039;-63
2021/05/25 06:18:22;;;;;;;6.15;4.18;;;;;;;13.47;59.66;100914.88;4989797;28;124712;-63
2021/05/25 06:20:49;;;;;;;5.10;4.47;;;;;;;13.52;59.63;100912.84;4989211;28;123873;-63
2021/05/25 06:23:16;;;;;;;7.00;4.57;;;;;;;13.59;59.59;100914.22;4989312;28;114629;-63
2021/05/25 06:25:43;;;;;;;5.43;4.38;;;;;;;13.65;59.48;100918.31;4991135;28;114362;-63
2021/05/25 06:28:11;;;;;;;7.90;4.72;;;;;;;13.69;59.15;100918.06;4990349;28;123372;-63
2021/05/25 06:30:38;;;;;;;5.80;4.32;;;;;;;13.75;59.16;100915.06;4989498;28;124214;-63
2021/05/25 06:33:05;;;;;;;5.70;4.13;;;;;;;13.81;59.11;100925.34;4989468;28;114098;-64
2021/05/25 06:35:34;;;;;;;6.78;4.20;;;;;;;13.83;58.50;100923.47;4988664;28;114695;-63
2021/05/25 06:38:02;;;;;;;5.03;4.10;;;;;;;13.84;58.46;100929.63;4992036;28;124746;-64
2021/05/25 06:40:30;;;;;;;5.28;4.32;;;;;;;13.87;58.42;100933.94;4988796;28;124720;-64
2021/05/25 06:42:57;;;;;;;5.10;4.47;;;;;;;13.85;58.36;100935.84;4990513;28;114689;-65
2021/05/25 06:45:25;;;;;;;6.15;5.25;;;;;;;13.85;58.55;100935.84;4993307;28;114764;-65
2021/05/25 06:47:52;;;;;;;6.00;5.40;;;;;;;13.88;58.49;100946.28;4989635;28;124680;-65
2021/05/25 06:50:20;;;;;;;6.32;5.40;;;;;;;13.91;58.41;100951.44;4990811;28;124387;-65
2021/05/25 06:52:47;;;;;;;6.70;5.90;;;;;;;13.93;57.96;100954.88;4991457;28;114659;-64
2021/05/25 06:55:15;;;;;;;7.97;5.68;;;;;;;13.93;57.96;100954.88;4992555;28;113565;-64
2021/05/25 06:57:43;;;;;;;7.35;6.25;;;;;;;13.92;58.13;100959.34;4990693;28;122963;-64
2021/05/25 07:00:12;;;;;;;8.32;6.38;;;;;;;13.96;58.09;100965.38;5006780;28;122982;-64
2021/05/25 07:02:39;;;;;;;7.20;6.32;;;;;;;14.00;58.13;100961.56;4989132;28;115370;-64
2021/05/25 07:05:08;;;;;;;8.75;7.45;;;;;;;14.09;58.09;100971.69;4989038;28;115396;-64
2021/05/25 07:07:36;;;;;;;8.43;7.43;;;;;;;14.16;58.10;100975.69;4990087;28;124001;-64
2021/05/25 07:10:05;;;;;;;9.60;7.43;;;;;;;14.21;57.78;100976.31;4990921;28;123797;-64
2021/05/25 07:12:32;;;;;;;9.35;8.02;;;;;;;14.23;57.47;100984.22;4990097;28;113399;-64
2021/05/25 07:15:00;;;;;;;11.27;8.23;;;;;;;14.25;57.63;100981.47;4977427;28;112811;-64
2021/05/25 07:17:27;;;;;;;9.23;8.32;;;;;;;14.29;57.67;100983.00;4990077;28;124058;-64
2021/05/25 07:19:54;;;;;;;9.98;8.45;;;;;;;14.36;57.58;100984.34;4989609;28;124441;-64
2021/05/25 07:22:22;;;;;;;9.88;8.75;;;;;;;14.40;57.23;100985.88;4991044;28;114845;-64
2021/05/25 07:24:49;;;;;;;10.15;8.30;;;;;;;14.43;57.10;100991.03;4991762;28;116551;-64
2021/05/25 07:27:17;;;;;;;9.90;8.52;;;;;;;14.43;57.29;100980.38;4987932;28;124446;-64
2021/05/25 07:29:44;;;;;;;10.50;8.95;;;;;;;14.47;57.50;100981.91;4983906;28;124230;-64
2021/05/25 07:32:11;;;;;;;9.90;8.88;;;;;;;14.53;57.49;100981.53;4990577;28;114294;-64
2021/05/25 07:34:38;;;;;;;9.57;8.48;;;;;;;14.62;57.43;100984.63;4991181;28;113605;-64
2021/05/25 07:37:06;;;;;;;9.50;8.50;;;;;;;14.68;57.34;100986.97;4990187;28;124571;-64
2021/05/25 07:39:33;;;;;;;9.23;7.50;;;;;;;14.73;57.21;100987.50;4991646;28;124568;-64
2021/05/25 07:42:00;;;;;;;8.02;7.03;;;;;;;14.78;57.14;100990.78;4988573;28;115001;-65
2021/05/25 07:44:27;;;;;;;10.55;7.43;;;;;;;14.92;57.31;100995.28;4990494;28;114185;-65
2021/05/25 07:46:56;;;;;;;8.63;7.15;;;;;;;15.08;57.62;100988.03;4990134;28;124095;-64
2021/05/25 07:49:24;;;;;;;7.82;6.40;;;;;;;15.23;57.37;100991.56;4989925;28;124633;-64
2021/05/25 07:51:53;;;;;;;6.75;6.07;;;;;;;15.33;57.12;101008.75;4990062;28;113886;-64
2021/05/25 07:54:20;;;;;;;7.90;5.97;;;;;;;15.44;56.83;100999.19;4991475;28;114989;-64
2021/05/25 07:56:47;;;;;;;6.60;5.93;;;;;;;15.51;56.64;100992.50;4989858;28;124271;-65
2021/05/25 07:59:14;;;;;;;7.50;5.32;;;;;;;15.65;56.66;100997.84;4986953;28;123810;-65
2021/05/25 08:01:42;;;;;;;7.22;5.13;;;;;;;15.79;56.40;101001.47;4988459;28;114397;-65
2021/05/25 08:04:09;;;;;;;5.45;4.93;;;;;;;15.95;56.80;100999.50;4990258;28;114918;-65
2021/05/25 08:06:36;;;;;;;4.35;3.95;;;;;;;16.09;56.21;101002.13;4990505;28;124128;-65
2021/05/25 08:09:05;;;;;;;4.90;3.70;;;;;;;16.22;55.86;101002.19;4991044;28;124226;-65
2021/05/25 08:11:32;;;;;;;6.15;3.80;;;;;;;16.33;55.85;101004.13;4990233;28;114480;-65
2021/05/25 08:14:00;;;;;;;3.88;2.85;;;;;;;16.43;55.42;101004.41;4989406;28;113932;-65
2021/05/25 08:16:30;;;;;;;4.35;3.00;;;;;;;16.51;54.92;101008.25;4989672;28;123551;-66
2021/05/25 08:21:24;;;;;;;7.30;3.00;;;;;;;16.61;54.63;101018.31;4989418;28;114081;-66
2021/05/25 08:23:51;;;;;;;5.43;2.80;;;;;;;16.63;54.46;101021.75;4989620;28;113915;-66
2021/05/25 08:26:23;;;;;;;5.50;3.30;;;;;;;16.66;54.30;101029.56;4990102;28;123910;-66
2021/05/25 08:28:50;;;;;;;4.10;3.22;;;;;;;16.67;54.62;101024.13;4987584;28;123607;-66
2021/05/25 08:31:17;;;;;;;6.25;3.17;;;;;;;16.71;54.54;101030.13;4989097;28;114266;-65
2021/05/25 08:33:44;;;;;;;5.63;3.30;;;;;;;16.75;54.53;101036.97;4989770;28;112728;-65
2021/05/25 08:36:12;;;;;;;7.32;3.20;;;;;;;16.78;54.41;101031.41;4992255;28;124560;-65
2021/05/25 08:38:39;;;;;;;6.88;3.08;;;;;;;16.82;54.10;101037.41;4988573;28;124710;-65
2021/05/25 08:41:07;;;;;;;9.45;3.70;;;;;;;16.81;54.02;101041.91;4989026;28;115022;-65
2021/05/25 08:43:34;;;;;;;8.02;3.55;;;;;;;16.86;54.20;101038.97;4988630;28;115474;-65
2021/05/25 08:46:01;;;;;;;4.60;3.30;;;;;;;16.89;54.17;101039.56;4989470;28;124241;-65
2021/05/25 08:48:30;;;;;;;8.55;3.70;;;;;;;16.91;53.83;101037.69;4988802;28;124057;-65
2021/05/25 08:51:01;;;;;;;7.32;3.70;;;;;;;16.88;53.81;101048.59;4988791;28;114778;-65
2021/05/25 08:53:29;;;;;;;7.28;3.40;;;;;;;16.82;53.61;101061.47;4989627;28;114034;-64
2021/05/25 08:55:57;;;;;;;7.63;3.60;;;;;;;16.72;53.61;101063.91;4991961;28;123822;-64
2021/05/25 08:58:25;;;;;;;6.10;3.15;;;;;;;16.63;53.81;101064.53;4993922;28;124009;-65
2021/05/25 09:00:54;;;;;;;6.32;3.15;;;;;;;16.57;53.88;101064.94;4991292;28;113335;-65
2021/05/25 09:03:21;;;;;;;5.63;2.83;;;;;;;16.49;53.59;101068.13;4992447;28;114300;-65
2021/05/25 09:05:52;;;;;;;5.35;3.17;;;;;;;16.45;53.81;101072.84;4990579;28;124343;-65
2021/05/25 09:08:21;;;;;;;7.93;3.78;;;;;;;16.46;54.12;101077.22;4991146;28;123792;-65
2021/05/25 09:10:50;;;;;;;6.47;3.38;;;;;;;16.51;54.36;101091.13;4992002;28;114808;-65
2021/05/25 09:13:23;;;;;;;5.13;3.28;;;;;;;16.58;54.86;101088.94;5001474;28;113101;-65
2021/05/25 09:15:52;;;;;;;4.22;2.33;;;;;;;16.62;54.04;101094.94;4989655;28;124304;-65
2021/05/25 09:18:20;;;;;;;4.30;1.67;;;;;;;16.58;53.31;101098.78;4973965;28;122827;-65
2021/05/25 09:20:51;;;;;;;3.83;1.35;;;;;;;16.45;52.99;101099.56;4989978;28;114688;-65
2021/05/25 09:23:23;;;;;;;2.58;1.60;;;;;;;16.29;52.89;101098.84;4985690;28;114315;-65
2021/05/25 09:26:00;;;;;;;2.72;1.33;;;;;;;16.10;52.94;101100.03;4988043;28;125166;-65
2021/05/25 09:28:27;;;;;;;2.75;1.20;;;;;;;15.94;53.15;101104.66;4991355;28;123973;-65
2021/05/25 09:30:54;;;;;;;2.78;1.30;;;;;;;15.83;53.48;101102.66;4991053;28;114088;-65
2021/05/25 09:33:27;;;;;;;2.90;1.30;;;;;;;15.77;53.81;101108.38;4990198;28;115231;-65
2021/05/25 09:35:54;;;;;;;2.97;1.50;;;;;;;15.71;53.85;101098.91;4993294;28;123275;-65
2021/05/25 09:38:28;;;;;;;4.03;1.88;;;;;;;15.68;54.17;101104.44;4993300;28;123773;-65
2021/05/25 09:41:00;;;;;;;4.90;2.20;;;;;;;15.63;54.50;101117.22;4992241;28;114272;-65
2021/05/25 09:43:30;;;;;;;4.85;2.85;;;;;;;15.60;54.78;101105.88;4993243;28;114452;-65
2021/05/25 09:45:59;;;;;;;7.60;3.40;;;;;;;15.58;55.05;101113.97;4993021;28;122896;-65
2021/05/25 09:48:32;;;;;;;6.68;3.35;;;;;;;15.56;55.41;101107.88;4991367;28;123971;-65
2021/05/25 09:51:01;;;;;;;6.45;3.45;;;;;;;15.54;55.89;101112.47;4993907;28;114218;-66
2021/05/25 09:53:30;;;;;;;6.13;3.67;;;;;;;15.55;56.19;101111.50;4986179;28;113913;-65
2021/05/25 09:56:02;;;;;;;6.30;4.03;;;;;;;15.60;56.82;101117.41;4990938;28;124055;-65
2021/05/25 09:58:32;;;;;;;6.00;3.97;;;;;;;15.67;57.11;101115.22;4987407;28;124300;-65
2021/05/25 10:01:04;;;;;;;6.35;4.05;;;;;;;15.74;57.37;101120.09;4991734;28;114565;-65
2021/05/25 10:03:34;;;;;;;10.48;4.60;;;;;;;15.82;57.41;101113.44;4994331;28;114186;-64
2021/05/25 10:06:02;;;;;;;10.23;4.75;;;;;;;15.91;57.52;101115.53;4991876;28;124152;-65
2021/05/25 10:08:29;;;;;;;7.57;4.95;;;;;;;16.00;57.79;101109.59;4992150;28;124038;-65
2021/05/25 10:10:58;;;;;;;7.00;5.00;;;;;;;16.08;57.46;101107.28;4992918;28;114420;-65
2021/05/25 10:13:28;;;;;;;10.35;5.00;;;;;;;16.12;56.97;101103.50;4992022;28;113994;-65
2021/05/25 10:15:57;;;;;;;8.98;5.07;;;;;;;16.11;56.89;101101.75;4989014;28;123759;-64
2021/05/25 10:21:21;;;;;;;9.13;5.28;;;;;;;16.17;57.00;101099.66;4972460;28;113567;-64
2021/05/25 10:23:48;;;;;;;11.25;4.90;;;;;;;16.17;56.56;101105.00;4991021;28;115367;-65
2021/05/25 10:26:18;;;;;;;10.40;5.00;;;;;;;16.13;56.45;101110.53;4992802;28;124305;-65
2021/05/25 10:28:47;;;;;;;10.68;5.25;;;;;;;16.11;56.43;101107.09;4990117;28;123837;-65
2021/05/25 10:31:33;;;;;;;8.73;4.65;;;;;;;16.05;56.17;101123.53;4990854;28;114450;-65
2021/05/25 10:34:16;;;;;;;10.30;4.97;;;;;;;16.04;56.66;101132.50;4993310;28;114025;-65
2021/05/25 10:36:54;;;;;;;9.32;4.18;;;;;;;16.08;56.57;101126.00;4991466;28;123882;-65
2021/05/25 10:39:39;;;;;;;8.15;3.88;;;;;;;16.17;56.86;101127.22;4989757;28;123719;-65
2021/05/25 10:42:22;;;;;;;11.52;4.45;;;;;;;16.33;57.10;101132.44;4992900;28;113875;-65
2021/05/25 10:44:55;;;;;;;11.27;4.00;;;;;;;16.49;56.65;101132.31;4975447;28;113046;-65
2021/05/25 10:47:27;;;;;;;7.72;4.00;;;;;;;16.61;56.18;101141.34;4991578;28;124386;-65
2021/05/25 10:50:12;;;;;;;10.80;3.92;;;;;;;16.71;55.48;101134.44;4991060;28;123972;-65
2021/05/25 10:53:03;;;;;;;11.25;4.10;;;;;;;16.84;55.64;101116.63;4977526;28;114394;-65
2021/05/25 10:55:40;;;;;;;10.18;4.03;;;;;;;17.03;55.25;101120.75;4989960;28;113727;-65
2021/05/25 10:58:32;;;;;;;11.07;3.75;;;;;;;17.22;55.37;101115.00;4989136;28;124774;-65
2021/05/25 11:01:03;;;;;;;6.88;3.17;;;;;;;17.42;55.23;101121.63;4981391;28;123047;-65
2021/05/25 11:03:30;;;;;;;5.20;2.75;;;;;;;17.54;53.86;101131.50;4990440;28;114407;-65
2021/05/25 11:05:59;;;;;;;7.75;2.85;;;;;;;17.55;53.33;101143.91;4990722;28;114357;-65
2021/05/25 11:08:29;;;;;;;5.88;2.45;;;;;;;17.50;52.87;101133.53;4988728;28;124414;-64
2021/05/25 11:11:04;;;;;;;6.20;2.47;;;;;;;17.42;52.98;101129.66;4990380;28;123721;-64
2021/05/25 11:13:40;;;;;;;9.13;2.95;;;;;;;17.39;53.19;101137.94;4991527;28;115000;-64
2021/05/25 11:16:34;;;;;;;3.65;2.13;;;;;;;17.38;52.81;101133.53;4990459;28;114900;-65
2021/05/25 11:24:50;;;;;;;6.95;1.70;;;;;;;17.63;53.72;101135.34;4991856;28;114111;-65
2021/05/25 11:27:42;;;;;;;5.23;1.57;;;;;;;17.81;52.86;101133.22;4988879;28;115255;-66
2021/05/25 11:30:30;;;;;;;5.07;1.70;;;;;;;17.96;52.59;101134.81;4990768;28;123822;-65
2021/05/25 11:33:01;;;;;;;7.50;1.55;;;;;;;18.05;51.19;101158.28;4988780;28;122879;-65
2021/05/25 11:35:31;;;;;;;4.00;1.20;;;;;;;18.02;50.50;101158.50;4988495;28;114298;-65
2021/05/25 11:38:00;;;;;;;2.60;0.98;;;;;;;17.95;49.30;101151.00;4989610;28;114056;-65
2021/05/25 11:40:30;;;;;;;2.05;0.80;;;;;;;17.85;48.82;101157.00;4988869;28;124099;-65
2021/05/25 11:42:58;;;;;;;2.55;0.82;;;;;;;17.77;48.72;101158.50;4989615;28;123372;-65